Time;durP1;ratioP1;P1;durP2;ratioP2;P2;SDS_P1;SDS_P2;PMS_P1;PMS_P2;Temp;Humidity;BMP_temperature;BMP_pressure;BME280_temperature;BME280_humidity;BME280_pressure;Samples;Min_cycle;Max_cycle;Signal;HPM_P1;HPM_P2
2022/12/22 03:27:17;;;;;;;15.80;4.90;;;3.60;99.90;;;;;;5091385;28;20506;-61
2022/12/22 03:29:45;;;;;;;17.63;5.40;;;3.50;99.90;;;;;;5091882;28;20475;-61
2022/12/22 03:32:12;;;;;;;17.98;5.47;;;3.40;99.90;;;;;;5090821;28;20040;-61
2022/12/22 03:34:41;;;;;;;14.13;4.55;;;3.30;99.90;;;;;;5091562;28;20044;-60
2022/12/22 03:37:09;;;;;;;19.13;5.03;;;3.30;99.90;;;;;;5091792;28;20044;-61
2022/12/22 03:39:36;;;;;;;11.73;3.95;;;3.30;99.90;;;;;;5089771;28;20379;-61
2022/12/22 03:47:37;;;;;;;12.95;4.40;;;3.10;99.90;;;;;;5091725;28;20048;-62
2022/12/22 03:50:05;;;;;;;12.43;3.58;;;3.10;99.90;;;;;;5090641;28;20051;-63
2022/12/22 03:52:32;;;;;;;12.60;3.72;;;3.00;99.90;;;;;;5091601;28;20047;-60
2022/12/22 03:55:01;;;;;;;12.90;3.72;;;2.90;99.90;;;;;;5091708;28;20036;-62
2022/12/22 03:57:29;;;;;;;16.77;5.88;;;2.90;99.90;;;;;;5091768;28;20044;-62
2022/12/22 03:59:56;;;;;;;12.40;3.65;;;2.80;99.90;;;;;;5089373;28;20048;-62
2022/12/22 04:02:24;;;;;;;8.18;3.25;;;2.80;99.90;;;;;;5091593;28;20048;-61
2022/12/22 04:04:52;;;;;;;14.07;3.13;;;2.80;99.90;;;;;;5091831;28;20639;-61
2022/12/22 04:07:25;;;;;;;8.05;3.33;;;2.80;99.90;;;;;;5091525;28;20058;-61
2022/12/22 04:12:54;;;;;;;6.22;3.78;;;2.60;99.90;;;;;;5091817;28;20410;-61
2022/12/22 04:15:25;;;;;;;9.85;4.72;;;2.60;99.90;;;;;;5095733;28;20486;-60
2022/12/22 04:17:59;;;;;;;12.05;4.45;;;2.70;99.90;;;;;;5095513;28;20572;-61
2022/12/22 04:20:33;;;;;;;12.73;3.88;;;2.70;99.90;;;;;;5093431;28;20043;-61
2022/12/22 04:23:00;;;;;;;8.55;3.67;;;2.60;99.90;;;;;;5094231;28;20047;-60
2022/12/22 04:25:28;;;;;;;9.63;3.85;;;2.70;99.90;;;;;;5095452;28;20048;-60
2022/12/22 04:27:56;;;;;;;9.25;3.88;;;2.70;99.90;;;;;;5095292;28;20056;-60
2022/12/22 04:30:26;;;;;;;15.32;5.05;;;2.70;99.90;;;;;;5094585;28;20044;-60
2022/12/22 04:32:54;;;;;;;12.13;4.30;;;2.80;99.90;;;;;;5095476;28;20479;-60
2022/12/22 04:35:22;;;;;;;9.65;3.55;;;2.80;99.90;;;;;;5095270;28;20080;-59
2022/12/22 04:37:50;;;;;;;8.82;4.05;;;2.90;99.90;;;;;;5094890;28;20050;-61
2022/12/22 04:40:17;;;;;;;14.52;3.67;;;2.90;99.90;;;;;;5093953;28;20451;-61
2022/12/22 04:42:45;;;;;;;10.15;4.07;;;3.00;99.90;;;;;;5095134;28;20480;-62
2022/12/22 04:45:13;;;;;;;13.65;4.35;;;3.00;99.90;;;;;;5095014;28;20380;-61
2022/12/22 04:47:40;;;;;;;15.27;5.53;;;3.00;99.90;;;;;;5095341;28;20048;-61
2022/12/22 04:50:08;;;;;;;14.27;4.85;;;3.00;99.90;;;;;;5093840;28;20059;-60
2022/12/22 04:52:36;;;;;;;18.38;5.63;;;3.10;99.90;;;;;;5095015;28;20044;-61
2022/12/22 04:55:05;;;;;;;12.23;4.95;;;3.10;99.90;;;;;;5094472;28;20052;-60
2022/12/22 04:57:32;;;;;;;15.27;5.45;;;3.10;99.90;;;;;;5094845;28;20384;-59
2022/12/22 05:00:08;;;;;;;18.42;7.07;;;3.10;99.90;;;;;;5094420;28;20395;-62
2022/12/22 05:02:36;;;;;;;11.75;4.63;;;3.10;99.90;;;;;;5094635;28;20048;-60
2022/12/22 05:05:04;;;;;;;14.80;5.32;;;3.10;99.90;;;;;;5094737;28;20427;-61
2022/12/22 05:07:31;;;;;;;10.85;4.70;;;3.10;99.90;;;;;;5094633;28;20052;-61
2022/12/22 05:09:59;;;;;;;9.57;4.57;;;3.20;99.90;;;;;;5093510;28;20074;-60
2022/12/22 05:15:13;;;;;;;12.35;4.97;;;3.20;99.90;;;;;;5094452;28;20040;-61
2022/12/22 05:17:41;;;;;;;18.65;6.32;;;3.20;99.90;;;;;;5094469;28;20052;-61
2022/12/22 05:20:09;;;;;;;26.20;6.57;;;3.30;99.90;;;;;;5093114;28;20415;-61
2022/12/22 05:22:36;;;;;;;17.48;7.25;;;3.30;99.90;;;;;;5094027;28;20044;-61
2022/12/22 05:25:04;;;;;;;20.05;6.80;;;3.40;99.90;;;;;;5092536;28;20396;-60
2022/12/22 05:27:32;;;;;;;17.80;7.57;;;3.50;99.90;;;;;;5093098;28;20051;-60
2022/12/22 05:30:02;;;;;;;14.18;6.00;;;3.50;99.90;;;;;;5092476;28;20051;-61
2022/12/22 05:32:33;;;;;;;12.00;5.57;;;3.60;99.90;;;;;;5094157;28;20044;-61
2022/12/22 05:35:02;;;;;;;15.70;6.32;;;3.70;99.90;;;;;;5094322;28;20052;-60
2022/12/22 05:37:30;;;;;;;17.33;7.38;;;3.70;99.90;;;;;;5094011;28;20051;-63
2022/12/22 05:39:57;;;;;;;23.38;7.80;;;3.70;99.90;;;;;;5092149;28;20483;-61
2022/12/22 05:42:37;;;;;;;19.35;7.38;;;3.70;99.90;;;;;;5092859;28;20044;-61
2022/12/22 05:45:11;;;;;;;24.33;7.43;;;3.80;99.90;;;;;;5092731;28;20048;-61
2022/12/22 05:47:39;;;;;;;21.48;7.57;;;3.80;99.90;;;;;;5086466;28;20051;-60
2022/12/22 05:50:07;;;;;;;13.90;6.40;;;3.90;99.90;;;;;;5089060;28;20518;-61
2022/12/22 05:52:35;;;;;;;19.40;7.40;;;3.80;99.90;;;;;;5089193;28;20040;-60
2022/12/22 05:55:04;;;;;;;19.70;6.95;;;3.90;99.90;;;;;;5090090;28;20399;-61
2022/12/22 05:57:31;;;;;;;19.42;7.85;;;3.90;99.90;;;;;;5090047;28;20044;-60
2022/12/22 05:59:59;;;;;;;24.60;7.32;;;4.00;99.90;;;;;;5090278;28;20334;-61
2022/12/22 06:02:27;;;;;;;22.00;9.27;;;4.00;99.90;;;;;;5079381;28;20107;-61
2022/12/22 06:04:55;;;;;;;21.65;7.63;;;4.00;99.90;;;;;;5082161;28;20479;-61
2022/12/22 06:07:22;;;;;;;19.33;7.07;;;4.00;99.90;;;;;;5085134;28;20044;-59
2022/12/22 06:09:50;;;;;;;14.63;7.05;;;4.10;99.90;;;;;;5090080;28;20044;-59
2022/12/22 06:12:18;;;;;;;21.52;9.18;;;4.10;99.90;;;;;;5085684;28;20055;-60
2022/12/22 06:14:45;;;;;;;15.70;6.70;;;4.10;99.90;;;;;;5086704;28;20051;-60
2022/12/22 06:17:13;;;;;;;22.08;7.18;;;4.20;99.90;;;;;;5077016;28;20059;-61
2022/12/22 06:19:41;;;;;;;19.10;6.53;;;4.20;99.90;;;;;;5085342;28;20047;-61
2022/12/22 06:22:08;;;;;;;19.52;7.00;;;4.20;99.90;;;;;;5087299;28;20051;-61
2022/12/22 06:24:36;;;;;;;23.33;6.63;;;4.20;99.90;;;;;;5089536;28;20426;-61
2022/12/22 06:27:04;;;;;;;24.35;6.97;;;4.20;99.90;;;;;;5077922;28;20064;-62
2022/12/22 06:29:32;;;;;;;14.20;7.57;;;;;;;;;;5089863;28;20528;-60
2022/12/22 06:32:02;;;;;;;28.27;8.82;;;4.20;99.90;;;;;;5088009;28;20071;-60
2022/12/22 06:34:30;;;;;;;20.00;7.63;;;4.30;99.90;;;;;;5088196;28;20043;-62
2022/12/22 06:36:58;;;;;;;20.15;7.78;;;4.30;99.90;;;;;;5085655;28;20202;-62
2022/12/22 06:39:25;;;;;;;20.00;7.38;;;4.30;99.90;;;;;;5085815;28;20404;-61
2022/12/22 06:44:39;;;;;;;19.63;6.82;;;5.90;99.90;;;;;;5081570;28;20048;-61
2022/12/22 06:47:07;;;;;;;14.95;6.13;;;4.30;99.90;;;;;;5081219;28;20040;-61
2022/12/22 06:49:34;;;;;;;16.20;6.80;;;4.30;99.90;;;;;;5089374;28;20048;-61
2022/12/22 06:52:07;;;;;;;18.75;6.65;;;4.30;99.90;;;;;;5089166;28;20040;-61
2022/12/22 06:54:35;;;;;;;19.55;7.07;;;4.30;99.90;;;;;;5088470;28;20043;-61
2022/12/22 06:57:02;;;;;;;15.07;6.47;;;4.30;99.90;;;;;;5088390;28;20044;-61
2022/12/22 06:59:30;;;;;;;22.77;7.70;;;4.30;99.90;;;;;;5067509;28;20041;-62
2022/12/22 07:01:57;;;;;;;17.00;7.15;;;4.30;99.90;;;;;;5070565;28;20059;-62
2022/12/22 07:04:25;;;;;;;16.50;6.78;;;4.30;99.90;;;;;;5085467;28;20048;-61
2022/12/22 07:06:53;;;;;;;13.75;5.95;;;4.30;99.90;;;;;;5086286;28;20044;-61
2022/12/22 07:09:20;;;;;;;20.70;7.22;;;4.30;99.90;;;;;;5084264;28;20056;-61
2022/12/22 07:11:48;;;;;;;21.55;7.35;;;4.30;99.90;;;;;;5088798;28;20138;-61
2022/12/22 07:14:16;;;;;;;15.90;6.28;;;4.30;99.90;;;;;;5080658;28;20041;-61
2022/12/22 07:16:45;;;;;;;18.77;6.47;;;4.40;99.90;;;;;;5081150;28;20048;-61
2022/12/22 07:19:13;;;;;;;16.25;5.53;;;4.40;99.90;;;;;;5086377;28;20032;-61
2022/12/22 07:21:46;;;;;;;17.10;6.53;;;4.70;99.90;;;;;;5088736;28;20055;-61
2022/12/22 07:24:15;;;;;;;17.52;5.88;;;4.60;99.90;;;;;;5087302;28;20036;-61
2022/12/22 07:26:43;;;;;;;16.27;6.03;;;4.80;99.90;;;;;;5087514;28;20055;-61
2022/12/22 07:29:10;;;;;;;14.27;5.47;;;4.90;99.90;;;;;;5088374;28;20480;-61
2022/12/22 07:31:38;;;;;;;17.02;6.03;;;5.10;99.90;;;;;;5077911;28;20052;-61
2022/12/22 07:34:06;;;;;;;15.93;6.13;;;5.10;99.90;;;;;;5086812;28;20048;-62
2022/12/22 07:36:33;;;;;;;18.38;7.65;;;5.20;99.90;;;;;;5086529;28;20060;-60
2022/12/22 07:39:01;;;;;;;18.35;8.32;;;5.20;99.90;;;;;;5084899;28;20044;-60
2022/12/22 07:44:16;;;;;;;17.13;8.85;;;5.20;99.90;;;;;;5085779;28;20478;-60
2022/12/22 07:46:44;;;;;;;20.20;7.32;;;5.20;99.90;;;;;;5087620;28;20407;-61
2022/12/22 07:51:59;;;;;;;20.60;9.80;;;5.10;99.90;;;;;;5087974;28;20040;-62
2022/12/22 07:54:27;;;;;;;24.85;9.90;;;5.10;99.90;;;;;;5087926;28;20528;-62
2022/12/22 07:56:55;;;;;;;19.15;8.57;;;5.10;99.90;;;;;;5088515;28;20040;-60
2022/12/22 07:59:23;;;;;;;23.13;7.63;;;5.10;99.90;;;;;;5087140;28;20047;-60
2022/12/22 08:01:51;;;;;;;22.08;8.32;;;5.10;99.90;;;;;;5085335;28;20066;-59
2022/12/22 08:04:20;;;;;;;27.65;8.07;;;5.00;99.90;;;;;;5082793;28;20055;-60
2022/12/22 08:06:48;;;;;;;17.13;8.07;;;5.00;99.90;;;;;;5085939;28;20044;-59
2022/12/22 08:09:20;;;;;;;20.50;8.30;;;5.00;99.90;;;;;;5088074;28;20684;-60
2022/12/22 08:11:49;;;;;;;17.52;8.02;;;5.00;99.90;;;;;;5082982;28;20051;-60
2022/12/22 08:14:16;;;;;;;22.83;9.25;;;5.10;99.90;;;;;;5087705;28;20052;-60
2022/12/22 08:16:44;;;;;;;21.85;8.15;;;5.00;99.90;;;;;;5088134;28;20060;-60
2022/12/22 08:19:12;;;;;;;25.88;8.60;;;5.10;99.90;;;;;;5086765;28;20044;-60
2022/12/22 08:21:40;;;;;;;26.67;9.05;;;5.10;99.90;;;;;;5086503;28;20407;-60
2022/12/22 08:24:18;;;;;;;23.08;8.80;;;5.10;99.90;;;;;;5086794;28;20059;-60
2022/12/22 08:26:50;;;;;;;29.38;9.95;;;5.10;99.90;;;;;;5087860;28;20430;-60
2022/12/22 08:29:38;;;;;;;28.20;9.25;;;5.10;99.90;;;;;;5088242;28;20398;-59
2022/12/22 08:32:06;;;;;;;23.48;9.05;;;5.10;99.90;;;;;;5087001;28;20052;-59
2022/12/22 08:34:33;;;;;;;32.50;9.65;;;5.10;99.90;;;;;;5082453;28;20036;-59
2022/12/22 08:37:04;;;;;;;30.25;9.25;;;5.10;99.90;;;;;;5086074;28;20048;-60
2022/12/22 08:39:35;;;;;;;30.55;9.50;;;5.20;99.90;;;;;;5071886;28;20040;-61
2022/12/22 08:42:05;;;;;;;23.77;9.60;;;5.20;99.90;;;;;;5085976;28;20048;-60
2022/12/22 08:44:33;;;;;;;25.80;9.90;;;5.20;99.90;;;;;;5084423;28;20573;-60
2022/12/22 08:47:01;;;;;;;22.65;8.70;;;5.20;99.90;;;;;;5070312;28;20036;-60
2022/12/22 08:49:28;;;;;;;27.10;9.43;;;5.20;99.90;;;;;;5086264;28;20051;-60
2022/12/22 08:51:56;;;;;;;22.02;8.50;;;5.20;99.90;;;;;;5087424;28;20532;-60
2022/12/22 08:54:24;;;;;;;20.48;7.03;;;5.20;99.90;;;;;;5087253;28;20407;-59
2022/12/22 08:56:52;;;;;;;19.45;8.52;;;5.00;99.90;;;;;;5084501;28;20045;-60
2022/12/22 08:59:19;;;;;;;21.38;7.22;;;5.30;99.90;;;;;;5089010;28;20036;-61
2022/12/22 09:01:49;;;;;;;23.95;9.00;;;5.30;99.90;;;;;;5090044;28;20046;-61
2022/12/22 09:04:19;;;;;;;21.58;8.02;;;5.30;99.90;;;;;;5085146;28;20531;-61
2022/12/22 09:06:49;;;;;;;22.67;7.75;;;5.30;99.90;;;;;;5091327;28;20047;-60
2022/12/22 09:09:17;;;;;;;28.42;8.52;;;5.30;99.90;;;;;;5090625;28;20063;-60
2022/12/22 09:11:44;;;;;;;27.70;9.93;;;5.30;99.90;;;;;;5091323;28;20044;-61
2022/12/22 09:14:12;;;;;;;31.42;9.27;;;5.40;99.90;;;;;;5086394;28;20469;-60
2022/12/22 09:16:40;;;;;;;29.35;9.88;;;5.30;99.90;;;;;;5078207;28;20031;-59
2022/12/22 09:19:08;;;;;;;34.17;11.93;;;5.40;99.90;;;;;;5090209;28;20236;-59
2022/12/22 09:21:36;;;;;;;37.88;10.88;;;5.40;99.90;;;;;;5080957;28;20036;-60
2022/12/22 09:24:06;;;;;;;38.72;12.77;;;5.50;99.90;;;;;;5083153;28;20048;-61
2022/12/22 09:26:34;;;;;;;41.78;13.80;;;5.50;99.90;;;;;;5079735;28;20055;-60
2022/12/22 09:29:02;;;;;;;37.15;12.75;;;5.50;99.90;;;;;;5079895;28;20059;-60
2022/12/22 09:31:30;;;;;;;43.10;12.88;;;5.50;99.90;;;;;;5088794;28;20048;-60
2022/12/22 09:33:58;;;;;;;53.72;14.60;;;5.60;99.90;;;;;;5082357;28;20368;-61
2022/12/22 09:36:28;;;;;;;49.65;15.55;;;5.60;99.90;;;;;;5089723;28;20048;-61
2022/12/22 09:38:55;;;;;;;;;;;5.70;99.90;;;;;;5076525;28;20052;-61
2022/12/22 09:41:52;;;;;;;45.20;12.82;;;5.70;99.90;;;;;;5070750;28;19920;-61
2022/12/22 09:44:39;;;;;;;48.20;14.32;;;5.80;99.90;;;;;;5087699;28;20055;-60
2022/12/22 09:47:29;;;;;;;41.83;12.43;;;5.80;99.90;;;;;;5089712;28;20040;-61
2022/12/22 09:49:57;;;;;;;40.58;13.30;;;5.80;99.90;;;;;;5080127;28;20075;-60
2022/12/22 09:52:34;;;;;;;35.90;12.18;;;5.80;99.90;;;;;;5090096;28;20048;-60
2022/12/22 09:55:11;;;;;;;39.53;12.38;;;5.90;99.90;;;;;;5078218;28;20470;-59
2022/12/22 09:57:38;;;;;;;38.80;11.65;;;5.90;99.90;;;;;;5090533;28;20043;-59
2022/12/22 10:00:14;;;;;;;25.20;9.15;;;5.90;99.90;;;;;;5090703;28;20036;-60
2022/12/22 10:03:30;;;;;;;40.03;11.13;;;5.90;99.90;;;;;;5089878;28;20048;-60
2022/12/22 10:06:08;;;;;;;36.40;10.90;;;6.00;99.90;;;;;;5027728;28;20049;-59
2022/12/22 10:08:37;;;;;;;26.67;9.35;;;6.00;99.90;;;;;;5082263;28;20055;-60
2022/12/22 10:11:04;;;;;;;32.70;10.50;;;6.10;99.90;;;;;;5089094;28;20067;-60
2022/12/22 10:13:33;;;;;;;30.45;9.75;;;6.10;99.90;;;;;;5089757;28;20052;-59
2022/12/22 10:16:14;;;;;;;33.63;10.63;;;6.10;99.90;;;;;;5089362;28;20044;-61
2022/12/22 10:19:13;;;;;;;33.10;11.38;;;6.20;99.90;;;;;;5082166;28;20055;-60
2022/12/22 10:21:42;;;;;;;34.45;9.90;;;6.20;99.90;;;;;;5088267;28;20110;-60
2022/12/22 10:24:26;;;;;;;35.15;10.48;;;6.20;99.90;;;;;;5087424;28;20052;-60
2022/12/22 10:26:59;;;;;;;37.75;10.25;;;6.20;99.90;;;;;;5088323;28;20064;-60
2022/12/22 10:29:28;;;;;;;39.60;11.57;;;6.20;99.90;;;;;;5080039;28;20047;-60
2022/12/22 10:32:03;;;;;;;40.95;10.85;;;6.20;99.90;;;;;;5087619;28;20486;-60
2022/12/22 10:34:31;;;;;;;37.20;10.77;;;6.20;99.90;;;;;;5085636;28;20043;-60
2022/12/22 10:37:02;;;;;;;46.72;12.90;;;6.30;99.90;;;;;;5089507;28;20048;-60
2022/12/22 10:39:32;;;;;;;40.17;11.20;;;6.30;99.90;;;;;;5073785;28;20047;-60
2022/12/22 10:42:06;;;;;;;37.72;11.30;;;6.30;99.90;;;;;;5084335;28;20055;-60
2022/12/22 10:44:37;;;;;;;36.28;11.85;;;6.30;99.90;;;;;;5085271;28;20052;-59
2022/12/22 10:47:15;;;;;;;36.35;13.55;;;6.30;99.90;;;;;;5088049;28;20052;-60
2022/12/22 10:49:48;;;;;;;30.27;11.07;;;6.40;99.90;;;;;;5089427;28;20056;-60
2022/12/22 10:52:28;;;;;;;34.55;12.55;;;6.40;99.90;;;;;;5087830;28;20052;-61
2022/12/22 10:55:18;;;;;;;39.25;12.60;;;6.40;99.90;;;;;;5070301;28;20053;-61
2022/12/22 10:57:47;;;;;;;43.35;12.60;;;6.50;99.90;;;;;;5074456;28;20052;-62
2022/12/22 11:00:22;;;;;;;49.80;12.95;;;6.50;99.90;;;;;;5089128;28;20502;-63
2022/12/22 11:02:57;;;;;;;35.63;11.80;;;6.50;99.90;;;;;;5087408;28;20043;-61
2022/12/22 11:05:27;;;;;;;35.17;10.73;;;6.50;99.90;;;;;;5089278;28;20479;-61
2022/12/22 11:07:55;;;;;;;37.05;12.88;;;6.50;99.90;;;;;;5086850;28;20433;-61
2022/12/22 11:10:55;;;;;;;40.60;11.65;;;6.60;99.90;;;;;;5087852;28;20612;-61
2022/12/22 11:13:51;;;;;;;34.42;11.50;;;6.50;99.90;;;;;;5088477;28;20052;-61
2022/12/22 11:16:41;;;;;;;35.45;11.50;;;6.60;99.90;;;;;;5087861;28;20103;-61
2022/12/22 11:19:24;;;;;;;34.88;10.98;;;6.60;99.90;;;;;;5086989;28;20048;-63
2022/12/22 11:22:04;;;;;;;32.35;9.88;;;6.60;99.90;;;;;;5085556;28;20055;-61
2022/12/22 11:24:57;;;;;;;29.13;10.75;;;6.70;99.90;;;;;;5076494;28;20904;-61
2022/12/22 11:27:30;;;;;;;33.10;9.93;;;6.70;99.90;;;;;;5079134;28;20051;-61
2022/12/22 11:30:33;;;;;;;28.25;9.45;;;6.80;99.90;;;;;;5088504;28;20044;-61
2022/12/22 11:33:01;;;;;;;30.83;10.50;;;6.80;99.90;;;;;;5048319;28;20507;-62
2022/12/22 11:35:54;;;;;;;31.83;9.65;;;6.90;99.90;;;;;;5085677;28;20054;-63
2022/12/22 11:38:30;;;;;;;36.55;10.38;;;6.90;99.90;;;;;;5087080;28;20044;-61
2022/12/22 11:41:04;;;;;;;33.78;10.90;;;7.00;99.90;;;;;;5069923;28;20044;-62
2022/12/22 11:43:46;;;;;;;34.00;10.15;;;6.90;99.90;;;;;;5088060;28;20047;-61
2022/12/22 11:46:49;;;;;;;31.85;10.43;;;7.00;99.90;;;;;;5088439;28;20048;-63
2022/12/22 11:49:36;;;;;;;37.88;12.55;;;7.00;99.90;;;;;;5085910;28;20051;-61
2022/12/22 11:52:46;;;;;;;36.05;12.10;;;7.00;99.90;;;;;;5088205;28;20487;-60
2022/12/22 11:55:26;;;;;;;40.92;11.63;;;7.00;99.90;;;;;;5082368;28;20048;-61
2022/12/22 11:58:18;;;;;;;43.05;11.68;;;7.00;99.90;;;;;;5088186;28;20044;-60
2022/12/22 12:01:03;;;;;;;42.25;11.88;;;7.00;99.90;;;;;;5087054;28;20523;-59
2022/12/22 12:04:00;;;;;;;45.53;11.63;;;7.10;99.90;;;;;;5087591;28;20048;-60
2022/12/22 12:06:48;;;;;;;47.90;12.85;;;7.10;99.90;;;;;;5087979;28;20044;-60
2022/12/22 12:09:45;;;;;;;44.97;12.52;;;7.10;99.90;;;;;;5080191;28;20459;-60
2022/12/22 12:12:22;;;;;;;46.50;13.57;;;7.10;99.90;;;;;;5046777;28;20045;-58
2022/12/22 12:15:10;;;;;;;47.25;11.57;;;7.10;99.90;;;;;;5086669;28;20052;-59
2022/12/22 12:18:09;;;;;;;58.38;14.48;;;7.10;99.90;;;;;;5071842;28;20055;-60
2022/12/22 12:20:53;;;;;;;65.13;13.48;;;7.10;99.90;;;;;;5079736;28;20060;-60
2022/12/22 12:23:39;;;;;;;68.05;14.25;;;7.10;99.90;;;;;;5087892;28;20417;-60
2022/12/22 12:26:35;;;;;;;56.63;13.77;;;7.10;99.90;;;;;;5067578;28;20053;-60
2022/12/22 12:29:17;;;;;;;84.57;15.88;;;7.10;99.90;;;;;;5083454;28;20052;-60
2022/12/22 12:31:52;;;;;;;60.63;15.10;;;7.10;99.90;;;;;;5087935;28;20399;-58
2022/12/22 12:34:21;;;;;;;58.47;14.73;;;7.10;99.90;;;;;;5087440;28;20040;-61
2022/12/22 12:37:24;;;;;;;92.40;17.63;;;7.20;99.90;;;;;;5071775;28;20052;-61
2022/12/22 12:40:25;;;;;;;89.50;16.65;;;7.10;99.90;;;;;;5090303;28;20048;-61
2022/12/22 12:42:54;;;;;;;256.05;22.60;;;7.10;99.90;;;;;;5090480;28;20044;-60
2022/12/22 12:45:41;;;;;;;84.10;16.70;;;7.20;99.90;;;;;;5090912;28;20051;-59
2022/12/22 12:48:23;;;;;;;54.55;14.73;;;7.20;99.90;;;;;;5091485;28;20062;-59
2022/12/22 12:50:55;;;;;;;58.47;15.40;;;7.20;99.90;;;;;;5091788;28;20036;-59
2022/12/22 12:53:28;;;;;;;61.72;14.65;;;7.20;99.90;;;;;;5091196;28;20048;-59
2022/12/22 12:56:07;;;;;;;51.72;13.45;;;7.30;99.90;;;;;;5080060;28;20032;-58
2022/12/22 12:58:37;;;;;;;41.65;12.55;;;7.30;99.90;;;;;;5089046;28;20515;-58
2022/12/22 13:01:31;;;;;;;39.90;12.65;;;7.30;99.90;;;;;;5090865;28;20048;-58
2022/12/22 13:03:59;;;;;;;33.47;11.43;;;7.30;99.90;;;;;;5089548;28;20415;-59
2022/12/22 13:06:45;;;;;;;33.15;10.15;;;7.40;99.90;;;;;;5090853;28;20479;-59
2022/12/22 13:09:19;;;;;;;31.50;11.23;;;7.40;99.90;;;;;;5085790;28;20051;-59
2022/12/22 13:12:33;;;;;;;27.15;9.55;;;7.40;99.90;;;;;;5085698;28;20502;-59
2022/12/22 13:15:00;;;;;;;29.70;10.05;;;7.40;99.90;;;;;;5091105;28;20048;-58
2022/12/22 13:17:40;;;;;;;34.05;10.15;;;7.40;99.90;;;;;;5090822;28;20056;-60
2022/12/22 13:20:21;;;;;;;28.67;9.23;;;7.40;99.90;;;;;;5088699;28;20380;-59
2022/12/22 13:22:54;;;;;;;22.15;8.77;;;7.50;99.90;;;;;;5088474;28;20063;-59
2022/12/22 13:25:25;;;;;;;23.25;8.38;;;7.50;99.90;;;;;;5062031;28;20047;-58
2022/12/22 13:27:56;;;;;;;24.40;7.45;;;7.50;99.90;;;;;;5075655;28;20059;-60
2022/12/22 13:30:25;;;;;;;19.63;7.45;;;7.50;99.90;;;;;;5091160;28;20476;-58
2022/12/22 13:32:55;;;;;;;18.27;7.35;;;7.50;99.90;;;;;;5089500;28;20055;-58
2022/12/22 13:35:33;;;;;;;17.40;7.78;;;7.50;99.90;;;;;;5089754;28;20044;-58
2022/12/22 13:38:25;;;;;;;24.55;7.15;;;7.60;99.90;;;;;;5089831;28;20043;-60
2022/12/22 13:40:52;;;;;;;21.05;7.50;;;7.60;99.90;;;;;;5080616;28;20040;-59
2022/12/22 13:43:20;;;;;;;17.98;6.90;;;7.60;99.90;;;;;;5090497;28;20510;-59
2022/12/22 13:45:53;;;;;;;17.15;7.72;;;7.60;99.90;;;;;;5089582;28;20055;-58
2022/12/22 13:48:31;;;;;;;15.93;6.70;;;7.60;99.90;;;;;;5089686;28;20417;-59
2022/12/22 13:51:28;;;;;;;15.30;7.35;;;7.60;99.90;;;;;;5090360;28;20048;-59
2022/12/22 13:54:15;;;;;;;18.58;6.22;;;7.70;99.90;;;;;;5090110;28;20044;-59
2022/12/22 13:56:51;;;;;;;16.50;6.43;;;7.70;99.90;;;;;;5082571;28;20048;-58
2022/12/22 13:59:29;;;;;;;17.13;6.43;;;7.70;99.90;;;;;;5089192;28;20047;-58
2022/12/22 14:02:02;;;;;;;16.77;6.85;;;7.70;99.90;;;;;;5089563;28;20044;-60
2022/12/22 14:04:30;;;;;;;16.73;6.93;;;7.70;99.90;;;;;;5088543;28;20391;-58
2022/12/22 14:07:16;;;;;;;15.68;7.13;;;7.70;99.90;;;;;;5086654;28;20062;-58
2022/12/22 14:09:55;;;;;;;19.50;6.80;;;7.80;99.90;;;;;;5085316;28;20523;-58
2022/12/22 14:12:26;;;;;;;16.35;6.95;;;7.80;99.90;;;;;;5086021;28;20051;-59
2022/12/22 14:14:55;;;;;;;16.67;6.32;;;7.80;99.90;;;;;;5088765;28;20063;-58
2022/12/22 14:17:28;;;;;;;14.23;6.90;;;7.80;99.90;;;;;;5089885;28;20048;-60
2022/12/22 14:19:58;;;;;;;19.35;7.10;;;7.80;99.90;;;;;;5089905;28;20069;-59
2022/12/22 14:22:36;;;;;;;18.77;6.95;;;7.80;99.90;;;;;;5088301;28;20063;-59
2022/12/22 14:25:31;;;;;;;15.70;6.22;;;7.90;99.90;;;;;;5085636;28;20040;-59
2022/12/22 14:28:01;;;;;;;18.30;6.05;;;7.90;99.90;;;;;;5070287;28;20899;-60
2022/12/22 14:30:40;;;;;;;17.67;7.38;;;7.90;99.90;;;;;;5088876;28;20051;-60
2022/12/22 14:33:25;;;;;;;21.63;10.35;;;7.90;99.90;;;;;;5092809;28;20391;-59
2022/12/22 14:36:16;;;;;;;13.32;6.03;;;8.00;99.90;;;;;;5088397;28;20395;-59
2022/12/22 14:38:52;;;;;;;16.23;6.57;;;8.00;99.90;;;;;;5088585;28;20055;-59
2022/12/22 14:41:41;;;;;;;12.32;5.38;;;7.90;99.90;;;;;;5075119;28;20048;-58
2022/12/22 14:44:42;;;;;;;13.25;5.60;;;7.90;99.90;;;;;;5088633;28;20055;-58
2022/12/22 14:47:10;;;;;;;13.90;6.15;;;7.90;99.90;;;;;;5087224;28;20052;-58
2022/12/22 14:49:43;;;;;;;14.07;6.00;;;7.90;99.90;;;;;;5069502;28;20055;-58
2022/12/22 14:52:19;;;;;;;15.25;6.50;;;7.90;99.90;;;;;;5088408;28;20044;-59
2022/12/22 14:54:52;;;;;;;15.75;6.65;;;8.00;99.90;;;;;;5088725;28;20439;-59
2022/12/22 14:57:27;;;;;;;16.42;6.90;;;8.00;99.90;;;;;;5073363;28;20051;-59
2022/12/22 15:00:05;;;;;;;14.15;6.75;;;7.90;99.90;;;;;;5087046;28;20044;-59
2022/12/22 15:02:39;;;;;;;14.55;6.93;;;8.00;99.90;;;;;;5088002;28;20196;-58
2022/12/22 15:05:13;;;;;;;19.85;6.43;;;7.90;99.90;;;;;;5088843;28;20044;-58
2022/12/22 15:07:47;;;;;;;21.60;6.93;;;7.90;99.90;;;;;;5087025;28;20040;-59
2022/12/22 15:10:38;;;;;;;14.20;6.78;;;7.90;99.90;;;;;;5083730;28;20044;-60
2022/12/22 15:13:21;;;;;;;40.08;16.30;;;7.90;99.90;;;;;;5087359;28;20064;-63
2022/12/22 15:15:50;;;;;;;30.98;10.60;;;7.90;99.90;;;;;;5089082;28;20054;-58
2022/12/22 15:18:24;;;;;;;20.70;9.77;;;7.90;99.90;;;;;;5087608;28;20040;-58
2022/12/22 15:20:53;;;;;;;17.45;7.43;;;7.80;99.90;;;;;;5088010;28;20047;-59
2022/12/22 15:23:21;;;;;;;24.42;7.90;;;7.90;99.90;;;;;;5086952;28;20040;-59
2022/12/22 15:25:49;;;;;;;19.58;7.13;;;7.90;99.90;;;;;;5087196;28;20051;-59
2022/12/22 15:28:17;;;;;;;24.15;6.97;;;;;;;;;;5087196;28;20038;-58
2022/12/22 15:30:44;;;;;;;22.92;8.02;;;7.80;99.90;;;;;;5073389;28;20044;-60
2022/12/22 15:33:14;;;;;;;25.02;7.78;;;7.80;99.90;;;;;;5088128;28;20480;-59
2022/12/22 15:35:43;;;;;;;;;;;7.80;99.90;;;;;;5089301;28;20387;-61
2022/12/22 15:38:16;;;;;;;20.88;8.50;;;7.90;99.90;;;;;;5087392;28;20455;-59
2022/12/22 15:40:44;;;;;;;24.70;8.30;;;7.80;99.90;;;;;;5084915;28;20052;-62
2022/12/22 15:43:13;;;;;;;22.48;9.88;;;7.80;99.90;;;;;;5086148;28;20383;-61
2022/12/22 15:46:03;;;;;;;30.83;10.75;;;7.80;99.90;;;;;;5086182;28;20637;-60
2022/12/22 15:48:33;;;;;;;21.58;9.35;;;7.80;99.90;;;;;;5086831;28;20054;-61
2022/12/22 15:51:02;;;;;;;;;;;7.80;99.90;;;;;;5088918;28;20058;-60
2022/12/22 15:53:31;;;;;;;21.25;7.97;;;7.80;99.90;;;;;;5086692;28;19924;-59
2022/12/22 15:55:59;;;;;;;26.13;9.50;;;7.80;99.90;;;;;;5086626;28;20047;-61
2022/12/22 15:58:34;;;;;;;87.95;11.60;;;7.80;99.90;;;;;;5087573;28;20048;-61
2022/12/22 16:01:01;;;;;;;29.70;10.15;;;7.80;99.90;;;;;;5087538;28;20047;-61
2022/12/22 16:03:29;;;;;;;37.22;9.70;;;7.80;99.90;;;;;;5086915;28;20399;-61
2022/12/22 16:05:57;;;;;;;28.30;8.90;;;7.80;99.90;;;;;;5085082;28;20040;-60
2022/12/22 16:08:31;;;;;;;48.90;10.43;;;7.80;99.90;;;;;;5086603;28;20036;-60
2022/12/22 16:10:59;;;;;;;34.00;10.48;;;7.80;99.90;;;;;;5083294;28;20048;-60
2022/12/22 16:13:27;;;;;;;32.45;12.50;;;7.80;99.90;;;;;;5077630;28;20048;-62
2022/12/22 16:15:56;;;;;;;29.80;12.50;;;7.70;99.90;;;;;;5085327;28;20044;-61
2022/12/22 16:18:24;;;;;;;43.42;10.85;;;7.80;99.90;;;;;;5076853;28;20052;-60
2022/12/22 16:20:53;;;;;;;40.55;10.90;;;7.80;99.90;;;;;;5077533;28;20049;-61
2022/12/22 16:23:23;;;;;;;61.80;14.23;;;7.80;99.90;;;;;;5075752;28;20047;-62
2022/12/22 16:25:53;;;;;;;50.33;14.15;;;7.80;99.90;;;;;;5083128;28;20057;-62
2022/12/22 16:28:28;;;;;;;39.72;11.50;;;7.80;99.90;;;;;;5076173;28;20044;-62
2022/12/22 16:30:56;;;;;;;48.63;12.18;;;7.70;99.90;;;;;;5086608;28;20044;-60
2022/12/22 16:33:24;;;;;;;56.30;13.30;;;7.80;99.90;;;;;;5086707;28;20044;-61
2022/12/22 16:35:52;;;;;;;45.25;12.27;;;7.70;99.90;;;;;;5087218;28;20044;-60
2022/12/22 16:38:19;;;;;;;27.52;10.93;;;7.70;99.90;;;;;;5086936;28;20040;-59
2022/12/22 16:40:50;;;;;;;31.08;11.18;;;7.70;99.90;;;;;;5086463;28;20479;-59
2022/12/22 16:43:21;;;;;;;25.42;10.82;;;7.70;99.90;;;;;;5087574;28;20045;-58
2022/12/22 16:46:12;;;;;;;45.72;12.70;;;7.70;99.90;;;;;;5086504;28;20044;-59
2022/12/22 16:48:49;;;;;;;37.67;12.15;;;7.70;99.90;;;;;;5083511;28;20055;-59
2022/12/22 16:51:25;;;;;;;33.55;11.07;;;7.70;99.90;;;;;;5087607;28;20044;-59
2022/12/22 16:53:53;;;;;;;33.65;10.90;;;7.70;99.90;;;;;;5087487;28;20050;-59
2022/12/22 16:56:25;;;;;;;55.63;13.48;;;7.60;99.90;;;;;;5081978;28;20051;-59
2022/12/22 16:58:53;;;;;;;33.55;11.05;;;7.60;99.90;;;;;;5085458;28;20044;-60
2022/12/22 17:01:38;;;;;;;55.40;13.10;;;7.60;99.90;;;;;;5084075;28;20094;-59
2022/12/22 17:04:29;;;;;;;32.67;11.82;;;7.60;99.90;;;;;;5080924;28;20036;-59